Time;durP1;ratioP1;P1;durP2;ratioP2;P2;SDS_P1;SDS_P2;PMS_P1;PMS_P2;Temp;Humidity;BMP_temperature;BMP_pressure;BME280_temperature;BME280_humidity;BME280_pressure;Samples;Min_cycle;Max_cycle;Signal;HPM_P1;HPM_P2
2023/10/01 13:09:54;;;;;;;13.32;8.13;;;22.20;66.40;;;;;;5160246;27;20590;-76
2023/10/01 13:12:25;;;;;;;15.93;8.18;;;22.10;68.20;;;;;;5132278;27;20038;-75
2023/10/01 13:17:43;;;;;;;14.90;8.57;;;22.10;67.80;;;;;;5133357;27;20042;-76
2023/10/01 13:20:19;;;;;;;13.77;8.10;;;22.10;67.70;;;;;;5129266;27;20045;-76
2023/10/01 13:23:06;;;;;;;12.63;7.78;;;22.20;67.70;;;;;;5132031;27;20045;-76
2023/10/01 13:25:39;;;;;;;30.48;8.25;;;22.20;66.70;;;;;;5115438;27;20041;-76
2023/10/01 13:28:05;;;;;;;17.23;8.55;;;22.20;66.80;;;;;;5131412;27;20501;-76
2023/10/01 13:31:03;;;;;;;16.48;8.38;;;22.30;66.90;;;;;;5111483;27;20523;-76
2023/10/01 13:33:23;;;;;;;11.98;7.13;;;22.30;66.70;;;;;;5112121;27;20039;-76
2023/10/01 13:36:12;;;;;;;15.30;8.40;;;22.30;67.10;;;;;;5152829;27;20027;-75
2023/10/01 13:38:52;;;;;;;14.63;7.97;;;22.30;66.50;;;;;;5123468;27;20079;-76
2023/10/01 14:08:45;;;;;;;;;;;22.80;64.20;;;;;;5144041;27;20599;-74
2023/10/01 14:11:16;;;;;;;12.87;7.70;;;22.80;64.70;;;;;;5130156;27;19915;-74
2023/10/01 14:13:42;;;;;;;13.60;8.70;;;22.80;64.40;;;;;;5144364;27;20421;-74
2023/10/01 14:16:12;;;;;;;13.00;7.85;;;22.90;64.20;;;;;;5114364;27;20490;-74
2023/10/01 14:18:38;;;;;;;17.08;8.55;;;22.90;63.70;;;;;;5154542;27;20130;-74
2023/10/01 14:21:12;;;;;;;13.95;8.10;;;22.90;63.50;;;;;;5144874;27;20087;-75
2023/10/01 14:23:42;;;;;;;;;;;23.00;63.20;;;;;;5120345;27;20095;-74
2023/10/01 14:26:13;;;;;;;13.80;8.93;;;23.00;63.70;;;;;;5117296;27;19922;-74
2023/10/01 14:28:45;;;;;;;14.20;7.90;;;23.00;63.40;;;;;;5108913;27;20046;-74
2023/10/01 14:31:12;;;;;;;17.98;8.85;;;23.10;62.80;;;;;;5124047;27;20084;-74
2023/10/01 14:33:42;;;;;;;15.65;8.43;;;23.10;62.20;;;;;;5103745;27;20062;-74
2023/10/01 14:36:14;;;;;;;13.00;8.18;;;23.10;62.20;;;;;;5108257;27;20105;-74
2023/10/01 14:38:42;;;;;;;14.18;8.80;;;23.20;62.10;;;;;;5138092;27;20093;-74
2023/10/01 14:41:17;;;;;;;12.73;8.13;;;23.20;62.20;;;;;;5099941;27;20386;-73
2023/10/01 14:43:51;;;;;;;16.33;8.05;;;23.10;61.90;;;;;;5119068;27;20376;-74
2023/10/01 14:46:22;;;;;;;13.00;7.72;;;23.20;61.80;;;;;;5110381;27;20497;-74
2023/10/01 14:48:48;;;;;;;14.82;9.57;;;23.20;61.60;;;;;;5106152;28;20042;-74
2023/10/01 14:51:16;;;;;;;18.30;9.63;;;23.20;61.50;;;;;;5131903;27;20035;-74
2023/10/01 14:53:42;;;;;;;17.95;9.05;;;23.20;60.80;;;;;;5104572;27;20370;-76
2023/10/01 14:56:07;;;;;;;13.43;8.05;;;23.20;60.80;;;;;;5090220;27;20037;-76
2023/10/01 14:58:34;;;;;;;16.70;9.48;;;23.20;60.70;;;;;;5104523;27;20038;-78
2023/10/01 15:01:00;;;;;;;14.75;8.27;;;23.10;60.70;;;;;;5116926;27;20039;-77
2023/10/01 15:03:35;;;;;;;15.07;8.82;;;23.10;60.70;;;;;;5124891;27;20035;-77
2023/10/01 15:06:07;;;;;;;17.42;9.52;;;23.10;60.60;;;;;;5090826;27;20042;-78
2023/10/01 15:08:34;;;;;;;13.70;8.38;;;23.10;60.30;;;;;;5099760;27;20051;-79
2023/10/01 15:11:11;;;;;;;15.88;8.57;;;23.10;60.50;;;;;;5088386;27;20473;-78
2023/10/01 15:13:38;;;;;;;13.00;8.85;;;23.00;60.70;;;;;;5119014;27;20042;-79
2023/10/01 15:16:04;;;;;;;15.75;8.73;;;23.00;61.00;;;;;;5120948;27;20088;-79
2023/10/01 15:18:34;;;;;;;13.73;8.43;;;23.00;61.00;;;;;;5123201;27;20043;-80
2023/10/01 15:21:17;;;;;;;14.73;9.15;;;23.00;61.20;;;;;;5115659;27;20092;-80
2023/10/01 15:23:46;;;;;;;13.13;8.35;;;23.00;61.30;;;;;;5129048;27;20039;-77
2023/10/01 15:26:17;;;;;;;13.80;9.02;;;23.00;61.50;;;;;;5122736;27;20100;-78
2023/10/01 15:28:50;;;;;;;15.20;8.90;;;22.90;61.60;;;;;;5102274;27;20039;-78
2023/10/01 15:31:30;;;;;;;14.30;8.25;;;22.90;61.80;;;;;;5112143;27;20040;-78
2023/10/01 15:34:00;;;;;;;14.70;8.82;;;22.90;62.20;;;;;;5080101;28;20067;-78
2023/10/01 15:39:27;;;;;;;14.30;8.75;;;22.90;62.40;;;;;;5119809;27;20092;-78
2023/10/01 15:42:14;;;;;;;16.00;9.07;;;22.90;62.60;;;;;;5120988;27;20546;-78
2023/10/01 15:44:44;;;;;;;18.83;9.50;;;22.90;63.00;;;;;;5124638;27;20038;-78
2023/10/01 15:50:10;;;;;;;16.23;9.70;;;22.90;62.50;;;;;;5116852;27;20047;-78
2023/10/01 15:52:47;;;;;;;14.75;8.95;;;22.90;62.70;;;;;;5101136;28;20101;-77
2023/10/01 15:55:21;;;;;;;14.93;9.32;;;22.90;62.40;;;;;;5117814;27;20039;-78
2023/10/01 15:57:54;;;;;;;14.30;8.63;;;22.90;62.60;;;;;;5120348;27;20042;-80
2023/10/01 16:00:27;;;;;;;12.75;8.13;;;22.90;62.40;;;;;;5117653;27;20047;-79
2023/10/01 16:03:05;;;;;;;14.48;8.65;;;22.90;62.40;;;;;;5098052;27;20459;-78
2023/10/01 16:05:42;;;;;;;13.27;8.68;;;22.90;62.50;;;;;;5124507;27;20039;-79
2023/10/01 16:08:23;;;;;;;11.15;7.85;;;22.90;62.60;;;;;;5120601;27;20110;-79
2023/10/01 16:10:59;;;;;;;12.95;7.85;;;22.90;62.60;;;;;;5119551;27;20078;-77
2023/10/01 16:13:35;;;;;;;14.43;9.02;;;22.90;62.50;;;;;;5105873;28;20114;-77
2023/10/01 16:16:07;;;;;;;13.50;8.18;;;22.90;62.60;;;;;;5118094;27;20486;-76
2023/10/01 16:18:44;;;;;;;14.02;8.45;;;22.90;62.80;;;;;;5103894;27;20114;-77
2023/10/01 16:21:11;;;;;;;14.45;7.43;;;22.90;62.80;;;;;;5104693;27;20035;-76
2023/10/01 16:23:42;;;;;;;15.45;8.88;;;22.90;62.90;;;;;;5123149;27;20053;-78
2023/10/01 16:26:14;;;;;;;16.95;9.13;;;22.90;63.00;;;;;;5110855;27;20050;-78
2023/10/01 16:28:46;;;;;;;16.08;10.05;;;22.80;63.00;;;;;;5086695;27;20078;-77
2023/10/01 16:31:15;;;;;;;14.25;8.05;;;22.80;63.10;;;;;;5111796;27;20216;-76
2023/10/01 16:33:48;;;;;;;12.77;8.75;;;22.80;63.20;;;;;;5111235;27;20091;-76
2023/10/01 16:36:14;;;;;;;15.10;9.23;;;22.80;63.20;;;;;;5124696;27;20389;-76
2023/10/01 16:38:41;;;;;;;13.82;8.73;;;22.80;63.30;;;;;;5122132;27;20032;-76
2023/10/01 16:41:18;;;;;;;14.85;10.50;;;22.70;63.30;;;;;;5128040;27;20053;-75
2023/10/01 16:43:52;;;;;;;14.50;9.82;;;22.70;63.30;;;;;;5137391;27;20047;-76
2023/10/01 16:46:20;;;;;;;11.52;8.43;;;22.70;63.40;;;;;;5111481;27;20046;-76
2023/10/01 16:48:49;;;;;;;14.45;9.65;;;22.70;63.90;;;;;;5101019;27;20047;-77
2023/10/01 16:53:43;;;;;;;14.50;9.25;;;22.60;63.50;;;;;;5116366;27;20052;-77
2023/10/01 16:56:17;;;;;;;13.55;9.10;;;22.60;63.60;;;;;;5102669;28;20366;-76
2023/10/01 16:58:44;;;;;;;14.60;9.32;;;22.50;63.60;;;;;;5095719;28;20058;-76
2023/10/01 17:01:15;;;;;;;15.52;9.73;;;22.50;63.70;;;;;;5117636;27;20065;-75
2023/10/01 17:03:50;;;;;;;13.05;9.18;;;22.40;63.70;;;;;;5094019;28;20054;-76
2023/10/01 17:06:28;;;;;;;13.23;8.82;;;22.40;63.80;;;;;;5120285;28;20039;-76
2023/10/01 17:08:57;;;;;;;14.15;8.70;;;22.40;63.90;;;;;;5131061;28;20395;-78
2023/10/01 17:11:26;;;;;;;12.40;8.30;;;22.30;64.40;;;;;;5102902;28;20114;-76
2023/10/01 17:13:52;;;;;;;14.75;8.75;;;22.20;64.10;;;;;;5124186;28;20122;-76
2023/10/01 17:16:21;;;;;;;12.77;8.38;;;22.20;64.30;;;;;;5110604;28;20114;-76
2023/10/01 17:18:49;;;;;;;11.75;7.97;;;22.10;64.40;;;;;;5093258;28;20167;-76
2023/10/01 17:21:25;;;;;;;12.63;8.13;;;22.00;64.70;;;;;;5123560;28;20159;-75
2023/10/01 17:23:54;;;;;;;14.43;9.57;;;22.00;65.00;;;;;;5141787;27;20039;-76
2023/10/01 17:26:25;;;;;;;12.48;8.57;;;21.90;65.30;;;;;;5082132;28;20081;-75
2023/10/01 17:28:53;;;;;;;12.32;8.00;;;21.80;65.30;;;;;;5126824;28;20042;-76
2023/10/01 17:31:20;;;;;;;12.98;7.85;;;21.80;65.50;;;;;;5102146;28;20047;-76
2023/10/01 17:33:47;;;;;;;12.05;7.75;;;21.70;65.50;;;;;;5111768;28;20090;-76
2023/10/01 17:36:17;;;;;;;12.35;7.72;;;21.70;65.70;;;;;;5137178;27;20065;-75
2023/10/01 17:38:46;;;;;;;14.93;8.68;;;21.60;65.80;;;;;;5128619;28;20059;-76
2023/10/01 17:41:21;;;;;;;13.90;7.63;;;21.60;66.00;;;;;;5103568;28;20035;-76
2023/10/01 17:43:58;;;;;;;16.80;8.90;;;21.50;66.10;;;;;;5118129;28;20482;-75
2023/10/01 17:46:35;;;;;;;14.18;8.55;;;21.50;66.30;;;;;;5100135;28;20047;-76
2023/10/01 17:49:05;;;;;;;12.73;8.52;;;21.40;66.40;;;;;;5118340;28;20068;-76
2023/10/01 17:51:33;;;;;;;13.48;8.57;;;21.30;66.50;;;;;;5106131;28;20084;-75
2023/10/01 17:54:07;;;;;;;13.85;8.35;;;21.30;66.70;;;;;;5096043;27;20126;-75
2023/10/01 17:56:35;;;;;;;15.65;9.10;;;21.20;66.80;;;;;;5113479;27;20088;-76
2023/10/01 17:59:11;;;;;;;13.77;9.10;;;21.20;67.00;;;;;;5125685;27;20050;-75
2023/10/01 18:01:50;;;;;;;12.75;8.10;;;21.10;67.00;;;;;;5124104;27;20035;-76
2023/10/01 18:04:19;;;;;;;15.20;9.05;;;21.10;67.10;;;;;;5132162;27;20035;-75
2023/10/01 18:06:57;;;;;;;13.65;7.78;;;21.00;67.20;;;;;;5108695;27;20051;-75
2023/10/01 18:09:25;;;;;;;14.77;8.25;;;21.00;67.30;;;;;;5112249;27;20050;-75
2023/10/01 18:11:54;;;;;;;12.75;8.43;;;20.90;67.40;;;;;;5115829;27;20039;-76
2023/10/01 18:14:26;;;;;;;14.57;9.38;;;20.90;67.70;;;;;;5091716;27;20035;-76
2023/10/01 18:16:55;;;;;;;11.25;8.13;;;20.90;68.00;;;;;;5120802;27;20122;-76
2023/10/01 18:19:21;;;;;;;14.75;9.00;;;20.90;68.10;;;;;;5100222;27;20039;-75
2023/10/01 18:21:53;;;;;;;14.00;7.78;;;20.80;68.30;;;;;;5115757;27;20036;-84
2023/10/01 18:24:21;;;;;;;16.23;9.18;;;20.80;68.40;;;;;;5114636;28;20371;-84
2023/10/01 18:26:47;;;;;;;16.77;9.85;;;20.70;68.60;;;;;;5096769;28;20048;-80
2023/10/01 18:29:14;;;;;;;16.23;9.90;;;20.70;68.90;;;;;;5080428;28;20044;-83
2023/10/01 18:31:48;;;;;;;16.00;9.60;;;20.60;69.10;;;;;;5097340;27;20156;-82
2023/10/01 18:34:25;;;;;;;;;;;20.60;69.30;;;;;;5124766;27;20044;-82
2023/10/01 18:36:55;;;;;;;15.00;8.77;;;20.60;69.10;;;;;;5142251;27;20382;-82
2023/10/01 18:39:32;;;;;;;16.30;10.15;;;20.50;69.70;;;;;;5122736;27;20074;-82
2023/10/01 18:41:59;;;;;;;14.38;9.15;;;20.50;70.00;;;;;;5120073;27;20566;-82
2023/10/01 18:44:24;;;;;;;13.45;9.00;;;20.50;70.10;;;;;;5072537;27;20044;-84
2023/10/01 18:46:51;;;;;;;13.30;8.32;;;20.50;70.20;;;;;;5088999;27;20039;-83
2023/10/01 18:49:20;;;;;;;13.25;7.68;;;20.40;70.20;;;;;;5088684;27;20044;-81
2023/10/01 18:51:53;;;;;;;12.82;8.50;;;20.40;70.30;;;;;;5081492;27;20031;-83
2023/10/01 18:54:26;;;;;;;13.02;8.32;;;20.40;70.50;;;;;;5074449;27;20058;-83
2023/10/01 18:57:00;;;;;;;16.73;9.13;;;20.40;70.50;;;;;;5110614;27;20031;-83
2023/10/01 18:59:27;;;;;;;14.02;9.88;;;20.30;70.60;;;;;;5122438;27;20046;-82
2023/10/01 19:01:59;;;;;;;14.15;9.20;;;20.30;70.70;;;;;;5115294;27;20051;-81
2023/10/01 19:04:27;;;;;;;15.82;9.98;;;20.30;70.90;;;;;;5117444;27;20039;-80
2023/10/01 19:06:54;;;;;;;15.07;8.93;;;20.30;71.10;;;;;;5108665;28;20139;-82
2023/10/01 19:09:21;;;;;;;15.25;8.63;;;20.20;71.20;;;;;;5096118;28;20044;-84
2023/10/01 19:11:51;;;;;;;14.15;9.25;;;20.20;71.20;;;;;;5099480;27;20429;-81
2023/10/01 19:14:17;;;;;;;16.58;9.52;;;20.20;71.20;;;;;;5133207;27;20039;-82
2023/10/01 19:16:47;;;;;;;15.15;9.32;;;20.20;71.20;;;;;;5093752;27;20031;-82
2023/10/01 19:19:20;;;;;;;14.90;8.70;;;20.20;71.30;;;;;;5111984;27;20119;-80
2023/10/01 19:21:51;;;;;;;14.80;9.52;;;20.20;71.30;;;;;;5133291;27;20039;-80
2023/10/01 19:24:24;;;;;;;15.07;9.10;;;20.10;71.30;;;;;;5102903;27;20038;-81
2023/10/01 19:26:50;;;;;;;15.47;9.33;;;20.10;71.30;;;;;;5107018;28;20046;-81
2023/10/01 19:29:18;;;;;;;14.80;9.00;;;20.10;71.30;;;;;;5110187;27;20979;-82
2023/10/01 19:31:46;;;;;;;13.90;8.75;;;20.10;71.40;;;;;;5102669;27;20044;-81
2023/10/01 19:34:13;;;;;;;15.40;9.38;;;20.10;71.50;;;;;;5109452;27;20415;-81
2023/10/01 19:36:46;;;;;;;15.50;8.82;;;20.10;71.50;;;;;;5099323;28;20050;-82
2023/10/01 19:39:25;;;;;;;13.73;8.95;;;20.00;71.50;;;;;;5099375;28;20085;-81
2023/10/01 19:41:59;;;;;;;14.75;9.55;;;20.00;71.60;;;;;;5102181;28;20069;-81
2023/10/01 19:44:27;;;;;;;;;;;20.00;71.60;;;;;;5100453;28;20066;-80
2023/10/01 19:47:14;;;;;;;14.73;8.07;;;19.90;71.10;;;;;;5105170;27;19929;-80
2023/10/01 19:49:41;;;;;;;17.63;9.07;;;19.80;71.50;;;;;;5107699;27;20403;-80
2023/10/01 19:52:22;;;;;;;14.13;8.35;;;19.80;71.80;;;;;;5101895;28;20410;-82
2023/10/01 19:54:57;;;;;;;14.88;9.45;;;19.80;71.80;;;;;;5136094;27;20043;-80
2023/10/01 19:57:38;;;;;;;18.02;9.02;;;19.80;71.90;;;;;;5099617;27;20421;-80
2023/10/01 20:00:17;;;;;;;13.48;8.30;;;19.80;71.90;;;;;;5108008;27;20067;-81
2023/10/01 20:02:46;;;;;;;14.85;9.27;;;19.70;72.00;;;;;;5082521;27;20034;-81
2023/10/01 20:05:15;;;;;;;16.38;9.50;;;19.70;72.10;;;;;;5118934;27;20082;-81
2023/10/01 20:07:46;;;;;;;12.27;9.00;;;19.70;72.20;;;;;;5098731;27;20031;-82
2023/10/01 20:10:13;;;;;;;13.38;9.20;;;19.60;72.20;;;;;;5125929;27;20486;-81
2023/10/01 20:12:42;;;;;;;18.83;11.43;;;19.60;72.40;;;;;;5093813;27;20023;-80
2023/10/01 20:15:23;;;;;;;17.13;9.70;;;19.60;72.70;;;;;;5104891;27;20036;-80
2023/10/01 20:18:11;;;;;;;16.55;10.00;;;19.60;73.00;;;;;;5105468;28;20039;-83
2023/10/01 20:20:39;;;;;;;18.77;11.50;;;19.50;73.00;;;;;;5108179;27;20032;-82
2023/10/01 20:23:08;;;;;;;17.77;10.05;;;19.40;73.30;;;;;;5094271;27;20054;-82
2023/10/01 20:25:34;;;;;;;15.27;8.80;;;19.40;73.60;;;;;;5117949;27;20073;-82
2023/10/01 20:28:05;;;;;;;14.95;9.38;;;19.40;73.90;;;;;;5090958;27;20031;-82
2023/10/01 20:30:37;;;;;;;14.65;9.07;;;19.40;74.00;;;;;;5106406;27;20050;-81
2023/10/01 20:33:06;;;;;;;16.55;9.93;;;19.40;74.20;;;;;;5098112;28;20031;-80
2023/10/01 20:35:53;;;;;;;18.52;9.95;;;19.30;74.70;;;;;;5110674;27;20027;-80
2023/10/01 20:38:32;;;;;;;20.00;10.95;;;19.30;75.10;;;;;;5092643;27;20088;-77
2023/10/01 20:41:36;;;;;;;16.67;9.20;;;19.30;75.40;;;;;;5111242;27;20573;-80
2023/10/01 20:44:06;;;;;;;18.25;11.10;;;19.20;75.60;;;;;;5103100;27;20083;-79
2023/10/01 20:46:32;;;;;;;16.38;10.73;;;19.20;75.90;;;;;;5132100;27;20036;-79
2023/10/01 20:49:01;;;;;;;17.02;11.07;;;19.10;76.10;;;;;;5128499;27;20648;-79
2023/10/01 20:51:36;;;;;;;21.13;12.00;;;19.10;76.40;;;;;;5125345;27;20074;-79
2023/10/01 20:54:11;;;;;;;18.02;10.88;;;19.10;76.60;;;;;;5140621;27;20035;-78
2023/10/01 20:56:38;;;;;;;19.95;11.63;;;19.10;76.80;;;;;;5102401;27;20530;-79
2023/10/01 20:59:16;;;;;;;19.25;10.50;;;19.10;76.90;;;;;;5130011;27;20147;-79
2023/10/01 21:01:54;;;;;;;17.83;10.65;;;19.00;77.00;;;;;;5109554;28;20044;-80
2023/10/01 21:04:24;;;;;;;22.08;13.40;;;19.00;77.00;;;;;;5127785;27;20100;-80
2023/10/01 21:06:54;;;;;;;18.02;10.98;;;19.00;77.10;;;;;;5109010;28;20039;-80
2023/10/01 21:09:24;;;;;;;15.65;9.52;;;19.00;77.10;;;;;;5136689;27;20058;-79
2023/10/01 21:12:03;;;;;;;18.52;10.75;;;18.90;77.00;;;;;;5095876;28;20138;-80
2023/10/01 21:14:33;;;;;;;15.20;10.07;;;18.90;77.00;;;;;;5111432;28;20035;-79
2023/10/01 21:17:07;;;;;;;17.75;11.88;;;18.90;76.90;;;;;;5103272;28;20031;-79
2023/10/01 21:19:37;;;;;;;14.70;10.20;;;18.90;76.80;;;;;;5107911;28;20036;-81
2023/10/01 21:22:07;;;;;;;16.38;11.65;;;18.90;76.80;;;;;;5095567;28;20051;-81
2023/10/01 21:24:40;;;;;;;19.13;12.82;;;18.90;76.80;;;;;;5111368;28;20088;-81
2023/10/01 21:27:08;;;;;;;21.23;13.07;;;18.90;76.80;;;;;;5121751;28;20096;-80
2023/10/01 21:29:38;;;;;;;20.58;12.18;;;18.90;76.80;;;;;;5106752;28;20339;-81
2023/10/01 21:32:08;;;;;;;15.27;10.45;;;18.90;76.80;;;;;;5121893;27;20063;-80
2023/10/01 21:34:38;;;;;;;15.75;10.30;;;18.90;76.80;;;;;;5090145;28;20036;-81
2023/10/01 21:37:08;;;;;;;21.08;13.20;;;18.90;76.70;;;;;;5143858;27;20389;-81
2023/10/01 21:39:35;;;;;;;18.50;10.55;;;18.90;76.70;;;;;;5106557;27;20071;-81
2023/10/01 21:42:01;;;;;;;15.05;9.68;;;18.90;76.70;;;;;;5118159;27;20088;-81
2023/10/01 21:44:29;;;;;;;12.70;8.50;;;18.90;76.60;;;;;;5096642;28;20087;-80
2023/10/01 21:47:07;;;;;;;13.48;8.75;;;18.90;76.50;;;;;;5077677;28;20051;-81
2023/10/01 21:49:44;;;;;;;16.27;8.77;;;18.90;76.40;;;;;;5141926;27;20395;-81
2023/10/01 21:52:09;;;;;;;12.43;8.35;;;18.90;76.30;;;;;;5098169;28;20362;-81
2023/10/01 21:54:36;;;;;;;15.88;10.98;;;18.90;76.10;;;;;;5116718;27;20107;-81
2023/10/01 21:57:04;;;;;;;14.27;8.93;;;19.00;76.10;;;;;;5109997;27;20039;-81
2023/10/01 21:59:36;;;;;;;14.52;9.20;;;18.90;76.00;;;;;;5138449;27;20383;-81
2023/10/01 22:02:12;;;;;;;16.13;9.00;;;19.00;75.90;;;;;;5133422;27;20396;-81
2023/10/01 22:04:50;;;;;;;16.70;10.27;;;19.00;75.80;;;;;;5131255;27;20109;-81
2023/10/01 22:07:23;;;;;;;13.65;9.35;;;19.00;75.50;;;;;;5117457;27;20343;-81
2023/10/01 22:10:06;;;;;;;14.80;9.30;;;19.00;75.50;;;;;;5100879;27;20052;-80
2023/10/01 22:12:47;;;;;;;12.10;7.85;;;19.00;75.40;;;;;;5082610;28;20039;-81
2023/10/01 22:15:25;;;;;;;14.35;9.45;;;19.00;75.30;;;;;;5106720;28;20045;-81
2023/10/01 22:17:50;;;;;;;12.60;7.95;;;19.00;75.10;;;;;;5094956;28;20046;-81
2023/10/01 22:20:30;;;;;;;11.38;8.07;;;19.00;75.20;;;;;;5117159;27;20402;-80
2023/10/01 22:22:55;;;;;;;13.10;8.68;;;19.10;75.00;;;;;;5136463;27;20044;-81
2023/10/01 22:25:21;;;;;;;15.10;9.68;;;19.00;74.90;;;;;;5122173;27;20038;-81
2023/10/01 22:27:47;;;;;;;14.68;9.63;;;19.00;74.90;;;;;;5124811;27;20084;-80
2023/10/01 22:30:16;;;;;;;13.65;8.95;;;19.00;74.90;;;;;;5126529;27;20497;-80
2023/10/01 22:32:45;;;;;;;16.95;10.38;;;19.00;74.90;;;;;;5122046;27;20119;-81
2023/10/01 22:35:14;;;;;;;10.80;8.25;;;19.10;74.80;;;;;;5127527;27;20079;-80
2023/10/01 22:37:40;;;;;;;14.50;8.40;;;19.10;74.70;;;;;;5118937;27;20444;-81
2023/10/01 22:40:08;;;;;;;15.07;9.30;;;19.10;74.60;;;;;;5111491;28;20087;-80
2023/10/01 22:42:36;;;;;;;16.13;9.25;;;19.10;74.40;;;;;;5118496;27;20046;-81
2023/10/01 22:45:06;;;;;;;12.80;8.55;;;19.10;74.30;;;;;;5124088;27;20044;-81
2023/10/01 22:47:33;;;;;;;14.75;9.60;;;19.10;74.30;;;;;;5134322;27;20519;-80
2023/10/01 22:50:01;;;;;;;12.50;7.85;;;19.10;74.30;;;;;;5140937;27;20080;-81
2023/10/01 22:52:31;;;;;;;12.63;8.40;;;19.10;74.30;;;;;;5120393;27;20035;-81
2023/10/01 22:54:58;;;;;;;17.92;10.75;;;19.10;74.30;;;;;;5113609;27;20131;-81
2023/10/01 22:57:25;;;;;;;16.70;9.95;;;19.10;74.30;;;;;;5109570;27;20031;-81
2023/10/01 22:59:56;;;;;;;13.65;9.10;;;19.10;74.30;;;;;;5088659;27;20104;-80
2023/10/01 23:02:22;;;;;;;12.85;8.23;;;19.10;74.30;;;;;;5099446;28;20043;-81
2023/10/01 23:04:58;;;;;;;15.77;8.77;;;19.10;74.20;;;;;;5120605;27;20042;-81
2023/10/01 23:07:31;;;;;;;13.95;9.32;;;19.10;74.10;;;;;;5101487;28;20405;-81
2023/10/01 23:09:58;;;;;;;13.13;8.88;;;19.10;74.10;;;;;;5132550;27;20047;-81
2023/10/01 23:12:24;;;;;;;12.60;8.55;;;19.10;74.10;;;;;;5105871;27;20039;-81
2023/10/01 23:14:51;;;;;;;13.85;8.45;;;19.00;74.20;;;;;;5096835;28;20040;-81
2023/10/01 23:17:44;;;;;;;14.95;8.90;;;19.00;74.30;;;;;;5114927;27;20095;-81
2023/10/01 23:20:12;;;;;;;13.25;8.43;;;19.10;74.30;;;;;;5089087;28;20036;-81
2023/10/01 23:22:38;;;;;;;13.02;8.68;;;19.10;74.20;;;;;;5121840;27;20035;-81
2023/10/01 23:25:07;;;;;;;11.90;8.27;;;19.00;74.00;;;;;;5100608;28;20093;-81
2023/10/01 23:30:22;;;;;;;11.63;7.93;;;19.00;73.80;;;;;;5101467;27;20075;-81
2023/10/01 23:32:59;;;;;;;12.75;8.60;;;19.00;73.70;;;;;;5117307;27;20050;-81
2023/10/01 23:35:51;;;;;;;11.27;7.90;;;19.00;73.70;;;;;;5106585;27;20043;-81
2023/10/01 23:38:29;;;;;;;13.45;7.60;;;19.00;73.60;;;;;;5107617;28;20093;-81
2023/10/01 23:41:28;;;;;;;13.10;8.35;;;19.00;73.60;;;;;;5122013;27;20116;-80
2023/10/01 23:43:54;;;;;;;13.20;8.55;;;18.90;73.40;;;;;;5107085;28;20159;-80
2023/10/01 23:46:21;;;;;;;13.40;7.95;;;18.90;73.90;;;;;;5124977;27;20126;-80
2023/10/01 23:48:52;;;;;;;15.20;9.65;;;18.90;73.40;;;;;;5111159;27;20127;-81
2023/10/01 23:51:22;;;;;;;15.27;9.60;;;18.90;73.40;;;;;;5116966;27;20035;-81
2023/10/01 23:53:55;;;;;;;13.55;8.45;;;18.80;73.30;;;;;;5117153;27;20039;-81
2023/10/01 23:56:29;;;;;;;15.18;9.50;;;18.90;73.40;;;;;;5132968;27;20470;-81
2023/10/01 23:58:55;;;;;;;;;;;18.80;73.40;;;;;;5146123;27;20039;-81
